sensor_id;sensor_type;location;lat;lon;timestamp;pressure;altitude;pressure_sealevel;temperature;humidity
21504;BME280;10913;51.992;9.228;2022-09-23T00:00:18;100721.53;;;8.93;97.63
21504;BME280;10913;51.992;9.228;2022-09-23T00:02:47;100717.13;;;8.90;97.69
21504;BME280;10913;51.992;9.228;2022-09-23T00:05:13;100723.25;;;8.88;97.74
21504;BME280;10913;51.992;9.228;2022-09-23T00:07:38;100717.97;;;8.85;97.80
21504;BME280;10913;51.992;9.228;2022-09-23T00:10:05;100717.94;;;8.82;97.73
21504;BME280;10913;51.992;9.228;2022-09-23T00:12:30;100718.78;;;8.79;98.23
21504;BME280;10913;51.992;9.228;2022-09-23T00:14:56;100712.66;;;8.76;98.35
21504;BME280;10913;51.992;9.228;2022-09-23T00:17:21;100713.53;;;8.75;98.44
21504;BME280;10913;51.992;9.228;2022-09-23T00:19:48;100709.09;;;8.72;98.32
21504;BME280;10913;51.992;9.228;2022-09-23T00:22:13;100712.59;;;8.70;98.36
21504;BME280;10913;51.992;9.228;2022-09-23T00:24:39;100710.81;;;8.69;98.53
21504;BME280;10913;51.992;9.228;2022-09-23T00:27:04;100707.28;;;8.67;98.66
21504;BME280;10913;51.992;9.228;2022-09-23T00:29:30;100708.16;;;8.66;98.47
21504;BME280;10913;51.992;9.228;2022-09-23T00:31:56;100703.75;;;8.64;98.40
21504;BME280;10913;51.992;9.228;2022-09-23T00:34:21;100712.53;;;8.63;98.52
21504;BME280;10913;51.992;9.228;2022-09-23T00:36:46;100709.88;;;8.62;98.58
21504;BME280;10913;51.992;9.228;2022-09-23T00:39:12;100704.63;;;8.59;98.43
21504;BME280;10913;51.992;9.228;2022-09-23T00:41:38;100702.84;;;8.55;98.46
21504;BME280;10913;51.992;9.228;2022-09-23T00:47:23;100688.72;;;8.47;98.35
21504;BME280;10913;51.992;9.228;2022-09-23T00:50:23;100696.56;;;8.44;98.57
21504;BME280;10913;51.992;9.228;2022-09-23T00:52:51;100687.75;;;8.40;98.57
21504;BME280;10913;51.992;9.228;2022-09-23T00:55:21;100687.78;;;8.37;99.05
21504;BME280;10913;51.992;9.228;2022-09-23T00:57:51;100687.75;;;8.34;98.93
21504;BME280;10913;51.992;9.228;2022-09-23T01:00:19;100693.81;;;8.32;99.41
21504;BME280;10913;51.992;9.228;2022-09-23T01:02:45;100690.28;;;8.28;99.41
21504;BME280;10913;51.992;9.228;2022-09-23T01:05:11;100691.13;;;8.27;99.68
21504;BME280;10913;51.992;9.228;2022-09-23T01:07:36;100681.47;;;8.26;99.69
21504;BME280;10913;51.992;9.228;2022-09-23T01:10:02;100688.50;;;8.25;99.77
21504;BME280;10913;51.992;9.228;2022-09-23T01:12:46;100684.97;;;8.23;99.59
21504;BME280;10913;51.992;9.228;2022-09-23T01:17:56;100684.06;;;8.23;99.77
21504;BME280;10913;51.992;9.228;2022-09-23T01:20:54;100678.78;;;8.21;99.84
21504;BME280;10913;51.992;9.228;2022-09-23T01:29:42;100670.88;;;8.17;99.07
21504;BME280;10913;51.992;9.228;2022-09-23T01:35:04;100663.81;;;8.11;99.39
21504;BME280;10913;51.992;9.228;2022-09-23T01:43:23;100667.28;;;8.07;98.94
21504;BME280;10913;51.992;9.228;2022-09-23T01:45:56;100659.38;;;8.06;99.32
21504;BME280;10913;51.992;9.228;2022-09-23T01:48:32;100654.06;;;8.03;99.35
21504;BME280;10913;51.992;9.228;2022-09-23T01:51:05;100659.31;;;8.01;99.33
21504;BME280;10913;51.992;9.228;2022-09-23T01:53:39;100656.66;;;8.00;99.13
21504;BME280;10913;51.992;9.228;2022-09-23T01:56:16;100652.28;;;7.95;98.80
21504;BME280;10913;51.992;9.228;2022-09-23T01:58:46;100653.97;;;7.90;99.09
21504;BME280;10913;51.992;9.228;2022-09-23T02:01:19;100648.66;;;7.86;99.24
21504;BME280;10913;51.992;9.228;2022-09-23T02:03:55;100648.59;;;7.81;99.66
21504;BME280;10913;51.992;9.228;2022-09-23T02:06:45;100653.00;;;7.79;99.91
21504;BME280;10913;51.992;9.228;2022-09-23T02:09:17;100652.94;;;7.76;100.00
21504;BME280;10913;51.992;9.228;2022-09-23T02:11:50;100647.69;;;7.75;100.00
21504;BME280;10913;51.992;9.228;2022-09-23T02:16:48;100653.75;;;7.71;99.89
21504;BME280;10913;51.992;9.228;2022-09-23T02:19:26;100654.66;;;7.71;100.00
21504;BME280;10913;51.992;9.228;2022-09-23T02:21:58;100650.25;;;7.70;100.00
21504;BME280;10913;51.992;9.228;2022-09-23T02:24:29;100644.09;;;7.70;100.00
21504;BME280;10913;51.992;9.228;2022-09-23T02:29:56;100641.47;;;7.68;99.50
21504;BME280;10913;51.992;9.228;2022-09-23T02:32:32;100642.28;;;7.64;99.36
21504;BME280;10913;51.992;9.228;2022-09-23T02:37:47;100642.28;;;7.63;99.43
21504;BME280;10913;51.992;9.228;2022-09-23T02:40:35;100646.66;;;7.62;99.66
21504;BME280;10913;51.992;9.228;2022-09-23T02:43:46;100642.22;;;7.59;99.65
21504;BME280;10913;51.992;9.228;2022-09-23T02:45:54;100637.84;;;7.57;99.75
21504;BME280;10913;51.992;9.228;2022-09-23T02:48:50;100634.31;;;7.55;99.69
21504;BME280;10913;51.992;9.228;2022-09-23T02:51:17;100634.28;;;7.52;99.65
21504;BME280;10913;51.992;9.228;2022-09-23T02:53:43;100638.66;;;7.51;99.78
21504;BME280;10913;51.992;9.228;2022-09-23T02:56:17;100629.88;;;7.51;99.58
21504;BME280;10913;51.992;9.228;2022-09-23T02:58:45;100631.59;;;7.47;99.55
21504;BME280;10913;51.992;9.228;2022-09-23T03:12:54;100628.88;;;7.37;100.00
21504;BME280;10913;51.992;9.228;2022-09-23T03:18:12;100624.44;;;7.34;100.00
21504;BME280;10913;51.992;9.228;2022-09-23T03:20:50;100620.91;;;7.32;100.00
21504;BME280;10913;51.992;9.228;2022-09-23T03:23:21;100622.63;;;7.30;100.00
21504;BME280;10913;51.992;9.228;2022-09-23T03:25:51;100625.22;;;7.25;100.00
21504;BME280;10913;51.992;9.228;2022-09-23T03:28:18;100619.03;;;7.22;100.00
21504;BME280;10913;51.992;9.228;2022-09-23T03:30:47;100625.13;;;7.16;100.00
21504;BME280;10913;51.992;9.228;2022-09-23T03:33:15;100618.03;;;7.11;100.00
21504;BME280;10913;51.992;9.228;2022-09-23T03:35:51;100622.34;;;7.07;100.00
21504;BME280;10913;51.992;9.228;2022-09-23T03:38:39;100626.72;;;7.05;100.00
21504;BME280;10913;51.992;9.228;2022-09-23T03:41:09;100618.81;;;7.04;100.00
21504;BME280;10913;51.992;9.228;2022-09-23T03:43:37;100616.19;;;7.05;100.00
21504;BME280;10913;51.992;9.228;2022-09-23T03:46:03;100618.84;;;7.07;100.00
21504;BME280;10913;51.992;9.228;2022-09-23T03:48:29;100616.25;;;7.08;100.00
21504;BME280;10913;51.992;9.228;2022-09-23T03:50:54;100611.91;;;7.10;100.00
21504;BME280;10913;51.992;9.228;2022-09-23T03:53:20;100599.63;;;7.11;100.00
21504;BME280;10913;51.992;9.228;2022-09-23T03:55:46;100593.53;;;7.12;100.00
21504;BME280;10913;51.992;9.228;2022-09-23T03:58:12;100592.66;;;7.13;100.00
21504;BME280;10913;51.992;9.228;2022-09-23T04:00:37;100590.91;;;7.12;100.00
21504;BME280;10913;51.992;9.228;2022-09-23T04:03:03;100589.09;;;7.08;100.00
21504;BME280;10913;51.992;9.228;2022-09-23T04:05:29;100586.44;;;7.06;100.00
21504;BME280;10913;51.992;9.228;2022-09-23T04:07:54;100586.44;;;7.06;100.00
21504;BME280;10913;51.992;9.228;2022-09-23T04:10:20;100580.31;;;7.06;100.00
21504;BME280;10913;51.992;9.228;2022-09-23T04:12:46;100573.28;;;7.05;100.00
21504;BME280;10913;51.992;9.228;2022-09-23T04:15:11;100568.03;;;7.05;100.00
21504;BME280;10913;51.992;9.228;2022-09-23T04:17:37;100576.78;;;7.04;100.00
21504;BME280;10913;51.992;9.228;2022-09-23T04:20:02;100567.16;;;7.04;100.00
21504;BME280;10913;51.992;9.228;2022-09-23T04:22:27;100569.78;;;7.04;100.00
21504;BME280;10913;51.992;9.228;2022-09-23T04:24:53;100565.38;;;7.03;100.00
21504;BME280;10913;51.992;9.228;2022-09-23T04:27:18;100560.13;;;7.03;100.00
21504;BME280;10913;51.992;9.228;2022-09-23T04:29:44;100559.25;;;7.03;100.00
21504;BME280;10913;51.992;9.228;2022-09-23T04:32:09;100559.22;;;7.01;100.00
21504;BME280;10913;51.992;9.228;2022-09-23T04:34:35;100555.72;;;7.01;100.00
21504;BME280;10913;51.992;9.228;2022-09-23T04:37:00;100557.47;;;7.00;100.00
21504;BME280;10913;51.992;9.228;2022-09-23T04:39:25;100556.59;;;7.00;100.00
21504;BME280;10913;51.992;9.228;2022-09-23T04:41:51;100550.47;;;6.99;100.00
21504;BME280;10913;51.992;9.228;2022-09-23T04:44:16;100552.22;;;6.99;100.00
21504;BME280;10913;51.992;9.228;2022-09-23T04:46:42;100553.09;;;6.99;100.00
21504;BME280;10913;51.992;9.228;2022-09-23T04:49:08;100553.97;;;7.00;100.00
21504;BME280;10913;51.992;9.228;2022-09-23T04:51:34;100550.47;;;6.98;100.00
21504;BME280;10913;51.992;9.228;2022-09-23T04:53:59;100552.19;;;6.96;100.00
21504;BME280;10913;51.992;9.228;2022-09-23T04:56:27;100553.06;;;6.96;100.00
21504;BME280;10913;51.992;9.228;2022-09-23T04:58:54;100552.19;;;6.96;100.00
21504;BME280;10913;51.992;9.228;2022-09-23T05:01:29;100553.06;;;6.96;100.00
21504;BME280;10913;51.992;9.228;2022-09-23T05:04:00;100553.94;;;6.97;100.00
21504;BME280;10913;51.992;9.228;2022-09-23T05:06:27;100547.84;;;6.98;100.00
21504;BME280;10913;51.992;9.228;2022-09-23T05:08:54;100546.94;;;6.97;100.00
21504;BME280;10913;51.992;9.228;2022-09-23T05:11:21;100549.56;;;6.97;100.00
21504;BME280;10913;51.992;9.228;2022-09-23T05:13:47;100551.31;;;6.95;100.00
21504;BME280;10913;51.992;9.228;2022-09-23T05:16:13;100553.09;;;6.98;100.00
21504;BME280;10913;51.992;9.228;2022-09-23T05:18:40;100553.97;;;7.00;100.00
21504;BME280;10913;51.992;9.228;2022-09-23T05:21:07;100547.88;;;7.02;100.00
21504;BME280;10913;51.992;9.228;2022-09-23T05:23:34;100556.69;;;7.07;100.00
21504;BME280;10913;51.992;9.228;2022-09-23T05:26:02;100552.34;;;7.11;100.00
21504;BME280;10913;51.992;9.228;2022-09-23T05:28:30;100554.13;;;7.13;100.00
21504;BME280;10913;51.992;9.228;2022-09-23T05:33:32;100552.44;;;7.20;100.00
21504;BME280;10913;51.992;9.228;2022-09-23T05:35:57;100546.34;;;7.22;100.00
21504;BME280;10913;51.992;9.228;2022-09-23T05:38:23;100549.88;;;7.24;100.00
21504;BME280;10913;51.992;9.228;2022-09-23T05:40:56;100539.44;;;7.31;100.00
21504;BME280;10913;51.992;9.228;2022-09-23T05:43:22;100553.50;;;7.36;100.00
21504;BME280;10913;51.992;9.228;2022-09-23T05:45:47;100548.28;;;7.39;100.00
21504;BME280;10913;51.992;9.228;2022-09-23T05:48:13;100543.03;;;7.42;100.00
21504;BME280;10913;51.992;9.228;2022-09-23T05:50:38;100549.22;;;7.47;100.00
21504;BME280;10913;51.992;9.228;2022-09-23T05:53:03;100539.66;;;7.52;100.00
21504;BME280;10913;51.992;9.228;2022-09-23T05:55:29;100546.72;;;7.59;100.00
21504;BME280;10913;51.992;9.228;2022-09-23T05:57:55;100544.13;;;7.64;100.00
21504;BME280;10913;51.992;9.228;2022-09-23T06:00:20;100545.94;;;7.71;100.00
21504;BME280;10913;51.992;9.228;2022-09-23T06:02:46;100538.13;;;7.77;100.00
21504;BME280;10913;51.992;9.228;2022-09-23T06:05:12;100541.66;;;7.83;100.00
21504;BME280;10913;51.992;9.228;2022-09-23T06:07:38;100543.47;;;7.90;100.00
21504;BME280;10913;51.992;9.228;2022-09-23T06:10:03;100541.78;;;7.95;100.00
21504;BME280;10913;51.992;9.228;2022-09-23T06:12:29;100539.16;;;8.00;100.00
21504;BME280;10913;51.992;9.228;2022-09-23T06:14:55;100544.47;;;8.05;100.00
21504;BME280;10913;51.992;9.228;2022-09-23T06:17:20;100538.34;;;8.09;100.00
21504;BME280;10913;51.992;9.228;2022-09-23T06:19:46;100543.69;;;8.15;100.00
21504;BME280;10913;51.992;9.228;2022-09-23T06:22:11;100543.69;;;8.21;100.00
21504;BME280;10913;51.992;9.228;2022-09-23T06:24:41;100537.59;;;8.28;100.00
21504;BME280;10913;51.992;9.228;2022-09-23T06:27:08;100538.59;;;8.39;100.00
21504;BME280;10913;51.992;9.228;2022-09-23T06:29:33;100540.47;;;8.58;100.00
21504;BME280;10913;51.992;9.228;2022-09-23T06:32:00;100542.31;;;8.81;99.03
21504;BME280;10913;51.992;9.228;2022-09-23T06:34:26;100538.00;;;8.96;98.04
21504;BME280;10913;51.992;9.228;2022-09-23T06:36:51;100526.59;;;9.08;97.62
21504;BME280;10913;51.992;9.228;2022-09-23T06:39:17;100539.84;;;9.26;97.19
21504;BME280;10913;51.992;9.228;2022-09-23T06:41:43;100537.25;;;9.54;95.88
21504;BME280;10913;51.992;9.228;2022-09-23T06:44:09;100541.66;;;9.88;94.92
21504;BME280;10913;51.992;9.228;2022-09-23T06:46:35;100541.66;;;10.17;93.64
21504;BME280;10913;51.992;9.228;2022-09-23T06:49:01;100544.31;;;10.34;92.46
21504;BME280;10913;51.992;9.228;2022-09-23T06:51:27;100536.34;;;10.48;91.89
21504;BME280;10913;51.992;9.228;2022-09-23T06:53:53;100529.22;;;10.73;91.41
21504;BME280;10913;51.992;9.228;2022-09-23T06:56:20;100522.91;;;11.07;90.47
21504;BME280;10913;51.992;9.228;2022-09-23T06:58:47;100527.16;;;11.37;89.84
21504;BME280;10913;51.992;9.228;2022-09-23T07:01:14;100522.44;;;11.80;89.43
21504;BME280;10913;51.992;9.228;2022-09-23T07:03:44;100517.22;;;12.61;86.36
21504;BME280;10913;51.992;9.228;2022-09-23T07:06:11;100514.38;;;13.99;82.33
21504;BME280;10913;51.992;9.228;2022-09-23T07:08:36;100504.50;;;15.77;76.94
21504;BME280;10913;51.992;9.228;2022-09-23T07:11:06;100502.28;;;17.50;71.92
21504;BME280;10913;51.992;9.228;2022-09-23T07:13:32;100500.59;;;18.78;68.55
21504;BME280;10913;51.992;9.228;2022-09-23T07:15:59;100498.41;;;20.00;65.12
21504;BME280;10913;51.992;9.228;2022-09-23T07:18:28;100494.63;;;21.43;62.88
21504;BME280;10913;51.992;9.228;2022-09-23T07:20:54;100484.84;;;22.64;59.74
21504;BME280;10913;51.992;9.228;2022-09-23T07:23:23;100489.47;;;23.60;57.75
21504;BME280;10913;51.992;9.228;2022-09-23T07:25:49;100491.50;;;24.02;56.79
21504;BME280;10913;51.992;9.228;2022-09-23T07:28:17;100485.34;;;24.74;55.56
21504;BME280;10913;51.992;9.228;2022-09-23T07:30:43;100492.94;;;25.80;53.82
21504;BME280;10913;51.992;9.228;2022-09-23T07:33:09;100475.94;;;26.69;51.84
21504;BME280;10913;51.992;9.228;2022-09-23T07:35:38;100477.56;;;27.47;50.76
21504;BME280;10913;51.992;9.228;2022-09-23T07:38:05;100481.31;;;27.93;49.04
21504;BME280;10913;51.992;9.228;2022-09-23T07:40:31;100476.59;;;28.19;48.11
21504;BME280;10913;51.992;9.228;2022-09-23T07:42:56;100474.69;;;27.73;48.16
21504;BME280;10913;51.992;9.228;2022-09-23T07:45:22;100473.88;;;26.98;48.09
21504;BME280;10913;51.992;9.228;2022-09-23T07:47:47;100482.56;;;26.13;48.82
21504;BME280;10913;51.992;9.228;2022-09-23T07:50:14;100476.78;;;26.05;49.11
21504;BME280;10913;51.992;9.228;2022-09-23T07:52:39;100464.88;;;26.47;48.94
21504;BME280;10913;51.992;9.228;2022-09-23T07:55:05;100465.50;;;26.89;48.57
21504;BME280;10913;51.992;9.228;2022-09-23T07:57:31;100460.56;;;26.95;47.90
21504;BME280;10913;51.992;9.228;2022-09-23T07:59:56;100458.88;;;26.80;47.16
21504;BME280;10913;51.992;9.228;2022-09-23T08:02:22;100460.31;;;26.86;47.46
21504;BME280;10913;51.992;9.228;2022-09-23T08:04:48;100455.75;;;26.48;47.78
21504;BME280;10913;51.992;9.228;2022-09-23T08:07:14;100469.78;;;25.61;49.54
21504;BME280;10913;51.992;9.228;2022-09-23T08:09:50;100477.91;;;25.76;49.93
21504;BME280;10913;51.992;9.228;2022-09-23T08:12:20;100467.69;;;26.46;48.58
21504;BME280;10913;51.992;9.228;2022-09-23T08:14:46;100463.72;;;27.26;47.68
21504;BME280;10913;51.992;9.228;2022-09-23T08:17:13;100455.28;;;28.02;47.43
21504;BME280;10913;51.992;9.228;2022-09-23T08:19:39;100451.75;;;28.12;45.59
21504;BME280;10913;51.992;9.228;2022-09-23T08:22:04;100454.47;;;28.12;46.17
21504;BME280;10913;51.992;9.228;2022-09-23T08:24:29;100457.66;;;28.30;45.88
21504;BME280;10913;51.992;9.228;2022-09-23T08:26:56;100457.72;;;28.75;45.87
21504;BME280;10913;51.992;9.228;2022-09-23T08:29:24;100446.59;;;29.23;46.44
21504;BME280;10913;51.992;9.228;2022-09-23T08:31:50;100453.72;;;29.68;45.52
21504;BME280;10913;51.992;9.228;2022-09-23T08:34:17;100442.56;;;30.03;44.43
21504;BME280;10913;51.992;9.228;2022-09-23T08:36:43;100442.28;;;30.18;44.34
21504;BME280;10913;51.992;9.228;2022-09-23T08:39:12;100448.72;;;30.17;45.23
21504;BME280;10913;51.992;9.228;2022-09-23T08:44:26;100442.13;;;29.55;45.12
21504;BME280;10913;51.992;9.228;2022-09-23T08:47:09;100439.34;;;29.12;45.90
21504;BME280;10913;51.992;9.228;2022-09-23T08:49:47;100440.00;;;28.58;45.61
21504;BME280;10913;51.992;9.228;2022-09-23T08:52:26;100437.69;;;28.54;46.89
21504;BME280;10913;51.992;9.228;2022-09-23T08:54:53;100432.72;;;28.48;46.51
21504;BME280;10913;51.992;9.228;2022-09-23T08:57:29;100434.06;;;27.96;46.89
21504;BME280;10913;51.992;9.228;2022-09-23T08:59:56;100440.41;;;27.84;47.46
21504;BME280;10913;51.992;9.228;2022-09-23T09:02:23;100437.75;;;27.71;48.20
21504;BME280;10913;51.992;9.228;2022-09-23T09:04:53;100433.19;;;27.71;47.55
21504;BME280;10913;51.992;9.228;2022-09-23T09:07:24;100438.47;;;27.49;48.24
21504;BME280;10913;51.992;9.228;2022-09-23T09:12:27;100433.47;;;27.56;48.34
21504;BME280;10913;51.992;9.228;2022-09-23T09:15:04;100432.81;;;27.52;47.39
21504;BME280;10913;51.992;9.228;2022-09-23T09:27:47;100428.34;;;25.88;48.77
21504;BME280;10913;51.992;9.228;2022-09-23T09:30:13;100426.81;;;25.57;48.88
21504;BME280;10913;51.992;9.228;2022-09-23T09:35:37;100411.56;;;25.00;50.12
21504;BME280;10913;51.992;9.228;2022-09-23T09:38:04;100413.50;;;24.84;50.07
21504;BME280;10913;51.992;9.228;2022-09-23T09:40:31;100409.97;;;24.55;50.04
21504;BME280;10913;51.992;9.228;2022-09-23T09:42:57;100417.16;;;24.26;50.91
21504;BME280;10913;51.992;9.228;2022-09-23T09:45:29;100410.34;;;24.19;51.63
21504;BME280;10913;51.992;9.228;2022-09-23T09:48:09;100404.94;;;24.19;52.63
21504;BME280;10913;51.992;9.228;2022-09-23T09:55:40;100399.66;;;23.42;52.43
21504;BME280;10913;51.992;9.228;2022-09-23T09:58:06;100391.50;;;23.28;52.87
21504;BME280;10913;51.992;9.228;2022-09-23T10:00:43;100395.59;;;23.03;53.38
21504;BME280;10913;51.992;9.228;2022-09-23T10:11:13;100391.13;;;21.16;56.84
21504;BME280;10913;51.992;9.228;2022-09-23T10:13:40;100388.53;;;20.95;57.95
21504;BME280;10913;51.992;9.228;2022-09-23T10:16:06;100376.06;;;20.94;58.73
21504;BME280;10913;51.992;9.228;2022-09-23T10:18:52;100376.94;;;20.76;59.05
21504;BME280;10913;51.992;9.228;2022-09-23T10:21:22;100382.44;;;20.73;58.57
21504;BME280;10913;51.992;9.228;2022-09-23T10:23:54;100381.78;;;20.68;59.22
21504;BME280;10913;51.992;9.228;2022-09-23T10:26:29;100374.75;;;20.84;59.86
21504;BME280;10913;51.992;9.228;2022-09-23T10:28:57;100376.75;;;20.79;59.19
21504;BME280;10913;51.992;9.228;2022-09-23T10:31:32;100370.03;;;20.71;60.42
21504;BME280;10913;51.992;9.228;2022-09-23T10:34:00;100371.25;;;20.82;60.33
21504;BME280;10913;51.992;9.228;2022-09-23T10:36:30;100372.56;;;20.92;59.89
21504;BME280;10913;51.992;9.228;2022-09-23T10:38:58;100369.22;;;20.87;58.97
21504;BME280;10913;51.992;9.228;2022-09-23T10:42:01;100369.50;;;20.62;60.07
21504;BME280;10913;51.992;9.228;2022-09-23T10:45:03;100368.50;;;20.65;60.21
21504;BME280;10913;51.992;9.228;2022-09-23T10:56:36;100351.66;;;20.43;62.51
21504;BME280;10913;51.992;9.228;2022-09-23T11:36:31;100323.19;;;19.79;62.27
21504;BME280;10913;51.992;9.228;2022-09-23T11:39:00;100320.88;;;19.72;62.23
21504;BME280;10913;51.992;9.228;2022-09-23T11:41:33;100319.28;;;19.68;62.94
21504;BME280;10913;51.992;9.228;2022-09-23T11:44:05;100316.47;;;19.71;63.88
21504;BME280;10913;51.992;9.228;2022-09-23T11:46:42;100317.41;;;19.70;61.94
21504;BME280;10913;51.992;9.228;2022-09-23T11:49:20;100322.19;;;19.61;62.53
21504;BME280;10913;51.992;9.228;2022-09-23T11:57:50;100306.06;;;19.63;64.13
21504;BME280;10913;51.992;9.228;2022-09-23T12:00:22;100304.78;;;19.72;65.23
21504;BME280;10913;51.992;9.228;2022-09-23T12:03:23;100302.31;;;19.67;62.83
21504;BME280;10913;51.992;9.228;2022-09-23T12:05:57;100302.38;;;19.66;61.55
21504;BME280;10913;51.992;9.228;2022-09-23T12:13:38;100297.56;;;19.74;63.05
21504;BME280;10913;51.992;9.228;2022-09-23T12:23:53;100281.78;;;19.46;62.96
21504;BME280;10913;51.992;9.228;2022-09-23T12:26:22;100274.94;;;19.39;63.83
21504;BME280;10913;51.992;9.228;2022-09-23T12:28:51;100273.13;;;19.39;64.51
21504;BME280;10913;51.992;9.228;2022-09-23T12:31:21;100269.31;;;19.45;64.57
21504;BME280;10913;51.992;9.228;2022-09-23T12:33:56;100273.44;;;19.53;64.40
21504;BME280;10913;51.992;9.228;2022-09-23T12:36:30;100274.19;;;19.57;63.50
21504;BME280;10913;51.992;9.228;2022-09-23T12:41:32;100272.38;;;19.57;63.07
21504;BME280;10913;51.992;9.228;2022-09-23T12:46:40;100264.25;;;19.59;63.76
21504;BME280;10913;51.992;9.228;2022-09-23T12:54:42;100260.91;;;19.54;63.98
21504;BME280;10913;51.992;9.228;2022-09-23T13:05:12;100247.81;;;19.46;63.76
21504;BME280;10913;51.992;9.228;2022-09-23T13:08:04;100251.38;;;19.47;64.79
21504;BME280;10913;51.992;9.228;2022-09-23T13:13:17;100240.91;;;19.41;64.86
21504;BME280;10913;51.992;9.228;2022-09-23T13:15:45;100237.16;;;19.45;65.03
21504;BME280;10913;51.992;9.228;2022-09-23T13:20:48;100229.81;;;19.50;63.88
21504;BME280;10913;51.992;9.228;2022-09-23T13:23:25;100234.28;;;19.49;64.08
21504;BME280;10913;51.992;9.228;2022-09-23T13:25:56;100229.75;;;19.51;64.10
21504;BME280;10913;51.992;9.228;2022-09-23T13:28:33;100231.06;;;19.61;63.89
21504;BME280;10913;51.992;9.228;2022-09-23T13:31:05;100235.22;;;19.69;64.12
21504;BME280;10913;51.992;9.228;2022-09-23T13:33:41;100231.63;;;19.70;65.55
21504;BME280;10913;51.992;9.228;2022-09-23T13:36:16;100226.38;;;19.67;62.91
21504;BME280;10913;51.992;9.228;2022-09-23T13:38:42;100229.13;;;19.65;63.53
21504;BME280;10913;51.992;9.228;2022-09-23T13:41:14;100228.00;;;19.71;63.83
21504;BME280;10913;51.992;9.228;2022-09-23T13:43:46;100215.25;;;19.76;63.78
21504;BME280;10913;51.992;9.228;2022-09-23T13:46:18;100223.94;;;19.81;63.86
21504;BME280;10913;51.992;9.228;2022-09-23T13:48:46;100219.16;;;19.87;64.99
21504;BME280;10913;51.992;9.228;2022-09-23T13:51:21;100224.47;;;19.89;62.75
21504;BME280;10913;51.992;9.228;2022-09-23T13:53:55;100223.94;;;19.81;63.08
21504;BME280;10913;51.992;9.228;2022-09-23T13:56:21;100212.78;;;19.71;63.51
21504;BME280;10913;51.992;9.228;2022-09-23T13:58:47;100218.28;;;19.68;63.89
21504;BME280;10913;51.992;9.228;2022-09-23T14:01:33;100212.84;;;19.70;64.80
21504;BME280;10913;51.992;9.228;2022-09-23T14:03:59;100216.53;;;19.67;63.95
21504;BME280;10913;51.992;9.228;2022-09-23T14:06:28;100213.19;;;19.62;63.06
21504;BME280;10913;51.992;9.228;2022-09-23T14:08:54;100217.03;;;19.56;63.31
21504;BME280;10913;51.992;9.228;2022-09-23T14:11:27;100207.38;;;19.52;64.37
21504;BME280;10913;51.992;9.228;2022-09-23T14:13:54;100201.91;;;19.55;65.77
21504;BME280;10913;51.992;9.228;2022-09-23T14:16:21;100196.22;;;19.61;66.53
21504;BME280;10913;51.992;9.228;2022-09-23T14:18:50;100196.03;;;19.66;66.25
21504;BME280;10913;51.992;9.228;2022-09-23T14:23:51;100195.69;;;19.74;66.67
21504;BME280;10913;51.992;9.228;2022-09-23T14:26:17;100194.69;;;19.76;66.42
21504;BME280;10913;51.992;9.228;2022-09-23T14:28:43;100192.00;;;19.76;64.84
21504;BME280;10913;51.992;9.228;2022-09-23T14:31:10;100191.94;;;19.78;65.88
21504;BME280;10913;51.992;9.228;2022-09-23T14:33:39;100187.28;;;19.81;66.31
21504;BME280;10913;51.992;9.228;2022-09-23T14:36:07;100184.53;;;19.83;66.36
21504;BME280;10913;51.992;9.228;2022-09-23T14:39:00;100188.00;;;19.85;67.49
21504;BME280;10913;51.992;9.228;2022-09-23T14:41:26;100187.88;;;19.88;68.93
21504;BME280;10913;51.992;9.228;2022-09-23T14:43:55;100182.38;;;19.91;67.77
21504;BME280;10913;51.992;9.228;2022-09-23T14:46:24;100179.75;;;19.89;67.36
21504;BME280;10913;51.992;9.228;2022-09-23T14:49:00;100176.19;;;19.89;66.14
21504;BME280;10913;51.992;9.228;2022-09-23T14:52:05;100174.66;;;19.83;64.43
21504;BME280;10913;51.992;9.228;2022-09-23T15:02:38;100166.59;;;19.65;63.06
21504;BME280;10913;51.992;9.228;2022-09-23T15:05:20;100165.94;;;19.59;63.88
21504;BME280;10913;51.992;9.228;2022-09-23T15:07:49;100162.50;;;19.57;64.93
21504;BME280;10913;51.992;9.228;2022-09-23T15:10:21;100168.84;;;19.55;67.59
21504;BME280;10913;51.992;9.228;2022-09-23T15:12:48;100170.81;;;19.51;68.16
21504;BME280;10913;51.992;9.228;2022-09-23T15:15:15;100162.75;;;19.51;67.79
21504;BME280;10913;51.992;9.228;2022-09-23T15:17:43;100158.34;;;19.50;67.08
21504;BME280;10913;51.992;9.228;2022-09-23T15:22:52;100153.00;;;19.49;70.63
21504;BME280;10913;51.992;9.228;2022-09-23T15:25:38;100145.97;;;19.46;72.64
21504;BME280;10913;51.992;9.228;2022-09-23T15:30:35;100152.72;;;19.36;72.99
21504;BME280;10913;51.992;9.228;2022-09-23T15:33:00;100142.25;;;19.30;73.83
21504;BME280;10913;51.992;9.228;2022-09-23T15:35:27;100150.50;;;19.25;75.26
21504;BME280;10913;51.992;9.228;2022-09-23T15:37:55;100140.97;;;19.18;74.74
21504;BME280;10913;51.992;9.228;2022-09-23T15:40:28;100140.34;;;19.13;75.16
21504;BME280;10913;51.992;9.228;2022-09-23T15:42:59;100137.00;;;19.08;75.62
21504;BME280;10913;51.992;9.228;2022-09-23T15:45:29;100146.16;;;19.03;75.41
21504;BME280;10913;51.992;9.228;2022-09-23T15:47:59;100144.63;;;18.97;75.72
21504;BME280;10913;51.992;9.228;2022-09-23T15:50:26;100149.38;;;18.90;76.36
21504;BME280;10913;51.992;9.228;2022-09-23T15:52:53;100139.72;;;18.86;76.37
21504;BME280;10913;51.992;9.228;2022-09-23T15:55:19;100131.91;;;18.82;76.98
21504;BME280;10913;51.992;9.228;2022-09-23T15:57:48;100140.16;;;18.77;78.04
21504;BME280;10913;51.992;9.228;2022-09-23T16:00:14;100148.31;;;18.74;78.45
21504;BME280;10913;51.992;9.228;2022-09-23T16:02:43;100135.97;;;18.70;78.81
21504;BME280;10913;51.992;9.228;2022-09-23T16:05:37;100136.09;;;18.67;79.07
21504;BME280;10913;51.992;9.228;2022-09-23T16:08:04;100138.91;;;18.64;79.89